Terminal Aerodrome Forecast
Issued by NWS

Home | Current Version | Previous Version | Text Only | Print | Product List | Glossary On
Versions: 1 2 3 4 5 6 7 8 9 10 11 12 13
000
FTUS46 KHNX 211732 CCA
TAFBFL
TAF COR
KBFL 211732Z 2118/2218 VRB03KT 6SM HZ BKN200
     FM212000 28004KT 6SM HZ SCT200
     FM220600 08002KT 4SM HZ BR SKC=

USA.gov is the U.S. government's official web portal to all federal, state and local government web resources and services.